Skip Navigation Links
NOAA logo - Click to go to the NOAA homepage
NOAA's National Weather Service
Alaska Aviation Weather Unit
  NWS logo - Click to go to the NWS homepage
Left Navbar Graphic     08 AKDT = 16 GMT

   
NOAA is celebrating 200 years of science, service, and stewardship. Visit the NOAA 200th celebration Web site to learn more.
USA.gov is the U.S. Government's official Web portal to all Federal, state and local government Web resources and services.
Facebook
NWS on Facebook

Important Change Regarding the AAWU Web Presence

 

Over the last several months, the AAWU has been working to navigate its webpages to a nationally supported server. Security, as well as other needs, have necessitated the change.  In the process, we have made an effort to enhance the functionality of our website, as well as some of our products. As of June 20, 2017, aawu.arh.noaa.gov will be discontinued. The new AAWU web address is weather.gov/aawu. It is now live and will run in-parallel with the old site until it is discontinued. Please send any feedback or questions regarding the new webpages to nws.ar.aawu.webauthors@noaa.gov.  Thank you for your patience during this time of transition.
AAWU Home :: Display TAF Add Bookmark
TAF CZFM 291439Z 2915/2923 34005KT P6SM BKN100
    RMK NXT FCST BY 291900Z=

METAR CZFM 291300Z 36004KT 35SM BKN120 10/02 A2999 RMK AC5 20.4/9.8/0 SLP158= METAR CZFM 291400Z 32004KT 35SM BKN110 10/02 A2997 RMK AC6 SLP153= METAR CZFM 291500Z 01005KT 340V040 35SM BKN120 12/00 A2995 RMK AC5 SLP146= METAR CZFM 291600Z 03004KT 320V070 35SM FEW100 BKN180 14/00 A2993 RMK AC1AC5 SLP138=
 Alaska TAF Map

NOAA's National Weather Service
Alaska Aviation Weather Unit
6930 Sand Lake Road
Anchorage, AK 99502-1845
Disclaimer
Credits
Glossary
Privacy Policy
About Us
Career Opportunities
Contact AAWU Internet Services Site last modified: April, 17th 2012